Time;durP1;ratioP1;P1;durP2;ratioP2;P2;SDS_P1;SDS_P2;PMS_P1;PMS_P2;Temp;Humidity;BMP_temperature;BMP_pressure;BME280_temperature;BME280_humidity;BME280_pressure;Samples;Min_cycle;Max_cycle;Signal;HPM_P1;HPM_P2
2022/11/02 00:02:17;;;;;;;0.40;0.20;;;17.30;52.60;;;;;;4991703;28;20396;-84
2022/11/02 00:04:44;;;;;;;0.52;0.20;;;17.10;52.90;;;;;;4990029;28;20376;-79
2022/11/02 00:07:11;;;;;;;0.40;0.20;;;17.10;52.90;;;;;;4975980;28;20405;-84
2022/11/02 00:09:37;;;;;;;0.80;0.20;;;16.90;53.30;;;;;;4989117;28;20506;-83
2022/11/02 00:12:05;;;;;;;0.40;0.10;;;16.60;53.40;;;;;;4989519;28;20396;-84
2022/11/02 00:14:32;;;;;;;0.40;0.20;;;16.50;50.90;;;;;;4988918;28;20509;-84
2022/11/02 00:16:59;;;;;;;0.65;0.63;;;16.60;51.10;;;;;;4990809;28;20407;-84
2022/11/02 00:19:26;;;;;;;0.10;0.10;;;17.10;51.80;;;;;;4999692;28;20415;-84
2022/11/02 00:21:55;;;;;;;1.05;0.10;;;17.40;50.30;;;;;;5010180;28;20406;-83
2022/11/02 00:24:22;;;;;;;0.38;0.20;;;17.50;51.30;;;;;;4983461;28;20406;-84
2022/11/02 00:26:50;;;;;;;0.10;0.10;;;17.60;48.80;;;;;;5005475;28;20394;-83
2022/11/02 00:29:17;;;;;;;0.17;0.17;;;17.20;49.00;;;;;;5003698;28;20395;-84
2022/11/02 00:31:44;;;;;;;0.13;0.10;;;17.20;50.00;;;;;;5010960;28;20466;-84
2022/11/02 00:34:11;;;;;;;1.15;0.25;;;17.00;50.30;;;;;;5009660;28;20441;-84
2022/11/02 00:36:38;;;;;;;0.13;0.10;;;17.20;49.70;;;;;;5011092;28;20412;-83
2022/11/02 00:39:05;;;;;;;0.10;0.10;;;17.30;49.60;;;;;;5011348;28;20403;-81
2022/11/02 00:41:32;;;;;;;0.20;0.20;;;17.30;49.80;;;;;;5011849;28;20446;-84
2022/11/02 00:43:59;;;;;;;0.70;0.20;;;17.40;50.50;;;;;;5011201;28;20387;-84
2022/11/02 00:46:26;;;;;;;2.50;0.27;;;17.60;50.00;;;;;;5010478;28;20740;-84
2022/11/02 00:48:53;;;;;;;0.22;0.10;;;17.70;49.20;;;;;;5010999;28;20391;-83
2022/11/02 00:51:20;;;;;;;0.37;0.20;;;17.80;50.00;;;;;;5010730;28;20410;-83
2022/11/02 00:53:47;;;;;;;1.25;0.25;;;17.70;52.20;;;;;;5010991;28;20426;-84
2022/11/02 00:56:14;;;;;;;0.25;0.10;;;17.70;50.90;;;;;;5015096;28;20375;-84
2022/11/02 00:58:43;;;;;;;2.07;0.40;;;17.60;50.70;;;;;;5008060;28;20396;-83
2022/11/02 01:01:11;;;;;;;0.47;0.17;;;17.80;48.60;;;;;;5004850;28;20416;-83
2022/11/02 01:03:37;;;;;;;0.20;0.20;;;17.80;49.20;;;;;;5000403;28;20387;-82
2022/11/02 01:06:10;;;;;;;0.25;0.20;;;17.60;50.00;;;;;;5016836;28;20415;-82
2022/11/02 01:08:39;;;;;;;1.27;0.20;;;17.50;48.60;;;;;;5003844;28;20389;-83
2022/11/02 01:11:14;;;;;;;1.58;0.32;;;17.70;49.00;;;;;;4995330;28;20397;-83
2022/11/02 01:13:44;;;;;;;2.50;0.40;;;17.90;48.30;;;;;;5010355;28;20393;-83
2022/11/02 01:16:12;;;;;;;0.30;0.30;;;18.00;48.00;;;;;;4988261;28;20393;-83
2022/11/02 01:18:40;;;;;;;0.30;0.30;;;18.20;48.60;;;;;;5010345;28;20389;-82
2022/11/02 01:21:08;;;;;;;0.95;0.20;;;18.70;47.70;;;;;;4996959;28;20478;-84
2022/11/02 01:23:36;;;;;;;1.38;0.35;;;18.70;47.10;;;;;;4996210;28;20443;-83
2022/11/02 01:26:08;;;;;;;0.98;0.20;;;18.90;47.70;;;;;;4996654;28;20396;-83
2022/11/02 01:28:39;;;;;;;0.85;0.30;;;18.90;47.10;;;;;;5006531;28;20389;-84
2022/11/02 01:31:07;;;;;;;1.17;0.10;;;19.00;46.70;;;;;;5009104;28;20491;-84
2022/11/02 01:33:34;;;;;;;0.65;0.20;;;19.30;46.50;;;;;;5009379;28;20447;-85
2022/11/02 01:36:06;;;;;;;0.47;0.20;;;19.40;47.00;;;;;;5016708;28;20460;-84
2022/11/02 01:38:33;;;;;;;0.30;0.10;;;19.70;45.80;;;;;;5015547;28;20495;-84
2022/11/02 01:41:02;;;;;;;1.00;0.10;;;20.30;46.80;;;;;;5013849;28;20407;-85
2022/11/02 01:43:34;;;;;;;0.32;0.10;;;20.60;46.60;;;;;;5007911;28;20381;-85
2022/11/02 01:46:23;;;;;;;1.08;0.30;;;20.00;45.60;;;;;;5010766;28;20391;-85
2022/11/02 01:49:04;;;;;;;0.20;0.20;;;20.40;47.20;;;;;;5020354;28;20395;-84
2022/11/02 01:51:56;;;;;;;1.00;0.20;;;20.20;46.20;;;;;;5007624;28;20374;-85
2022/11/02 01:54:30;;;;;;;0.10;0.10;;;19.30;47.70;;;;;;5014961;28;20392;-84
2022/11/02 01:57:02;;;;;;;0.35;0.20;;;18.90;47.80;;;;;;4997428;28;20391;-84
2022/11/02 01:59:47;;;;;;;0.22;0.10;;;19.20;48.80;;;;;;5010196;28;20387;-85
2022/11/02 02:02:21;;;;;;;0.40;0.20;;;18.20;46.30;;;;;;4995030;28;20409;-82
2022/11/02 02:04:53;;;;;;;1.55;0.17;;;19.10;47.30;;;;;;4998472;28;20414;-83
2022/11/02 02:07:24;;;;;;;2.60;0.20;;;19.60;46.30;;;;;;5001899;28;20485;-84
2022/11/02 02:09:52;;;;;;;0.20;0.15;;;20.40;46.20;;;;;;5009134;28;20699;-83
2022/11/02 02:12:20;;;;;;;1.53;0.20;;;20.80;44.70;;;;;;4979755;28;20427;-84
2022/11/02 02:14:47;;;;;;;1.00;0.20;;;20.90;46.30;;;;;;5011683;28;20385;-83
2022/11/02 02:17:28;;;;;;;1.20;0.20;;;21.40;43.60;;;;;;5015672;28;20363;-83
2022/11/02 02:19:59;;;;;;;0.40;0.10;;;20.70;44.10;;;;;;5017973;28;20409;-82
2022/11/02 02:23:00;;;;;;;0.93;0.50;;;20.90;45.40;;;;;;5009732;28;20396;-86
2022/11/02 02:26:08;;;;;;;0.70;0.10;;;21.20;44.50;;;;;;5016841;28;20384;-83
2022/11/02 02:29:21;;;;;;;0.25;0.25;;;21.00;44.50;;;;;;4978831;28;20401;-83
2022/11/02 02:32:11;;;;;;;1.27;0.47;;;21.70;44.70;;;;;;4952758;28;20404;-82
2022/11/02 02:35:04;;;;;;;0.80;0.30;;;20.80;45.10;;;;;;4953884;28;20396;-84
2022/11/02 02:37:55;;;;;;;0.30;0.10;;;21.20;43.90;;;;;;4943709;29;20408;-83
2022/11/02 02:40:59;;;;;;;0.20;0.10;;;21.10;42.50;;;;;;4957240;29;20502;-83
2022/11/02 02:43:48;;;;;;;1.50;0.20;;;20.60;44.40;;;;;;4957691;28;20408;-83
2022/11/02 02:46:41;;;;;;;3.72;0.40;;;20.10;46.20;;;;;;4954591;28;20401;-83
2022/11/02 02:49:15;;;;;;;0.70;0.40;;;20.60;46.60;;;;;;4950748;28;20472;-83
2022/11/02 02:51:46;;;;;;;0.60;0.20;;;21.80;44.70;;;;;;4962564;28;20888;-83
2022/11/02 02:54:19;;;;;;;0.40;0.20;;;22.80;43.40;;;;;;4949505;29;20403;-84
2022/11/02 02:56:56;;;;;;;0.22;0.20;;;23.00;43.70;;;;;;4938132;29;20416;-83
2022/11/02 02:59:41;;;;;;;0.10;0.10;;;22.90;42.70;;;;;;4959568;28;20388;-83
2022/11/02 03:02:32;;;;;;;0.70;0.35;;;22.20;42.20;;;;;;4950883;28;20394;-83
2022/11/02 03:04:59;;;;;;;0.25;0.20;;;21.70;44.00;;;;;;4984067;28;20375;-83
2022/11/02 03:07:30;;;;;;;1.00;0.20;;;21.60;44.00;;;;;;5025972;28;20387;-81
2022/11/02 03:10:19;;;;;;;0.50;0.50;;;21.40;45.60;;;;;;5015681;28;20377;-82
2022/11/02 03:13:07;;;;;;;0.40;0.30;;;21.80;44.90;;;;;;5028021;28;20371;-83
2022/11/02 03:15:42;;;;;;;0.38;0.30;;;22.50;44.40;;;;;;5029961;28;20386;-82
2022/11/02 03:18:17;;;;;;;0.40;0.40;;;21.90;42.50;;;;;;5030054;28;20439;-81
2022/11/02 03:21:33;;;;;;;0.38;0.20;;;21.90;43.80;;;;;;5030284;28;20411;-83
2022/11/02 03:24:13;;;;;;;0.20;0.10;;;21.90;45.00;;;;;;4986416;28;20415;-84
2022/11/02 03:27:14;;;;;;;0.30;0.30;;;21.90;42.70;;;;;;4980749;28;20383;-83
2022/11/02 03:30:15;;;;;;;0.75;0.43;;;21.60;43.40;;;;;;4965579;28;20775;-82
2022/11/02 03:32:56;;;;;;;0.40;0.20;;;22.60;43.40;;;;;;4975278;28;20422;-83
2022/11/02 03:35:34;;;;;;;0.53;0.17;;;23.10;40.80;;;;;;4977989;28;20450;-84
2022/11/02 03:38:12;;;;;;;1.65;0.82;;;23.20;41.00;;;;;;4978156;28;20474;-82
2022/11/02 03:40:44;;;;;;;0.20;0.20;;;23.50;42.10;;;;;;4966591;28;20467;-83
2022/11/02 03:43:13;;;;;;;0.98;0.13;;;23.10;41.10;;;;;;4975489;28;20394;-83
2022/11/02 03:45:53;;;;;;;0.50;0.23;;;22.50;42.00;;;;;;4975708;28;20479;-83
2022/11/02 03:48:24;;;;;;;0.30;0.20;;;21.80;42.10;;;;;;4945843;28;20392;-86
2022/11/02 03:50:55;;;;;;;0.10;0.10;;;21.70;42.40;;;;;;4963504;28;20480;-84
2022/11/02 03:53:32;;;;;;;0.45;0.20;;;22.00;44.80;;;;;;4971858;28;20395;-86
2022/11/02 03:56:07;;;;;;;0.40;0.10;;;21.90;42.20;;;;;;4955559;28;20890;-81
2022/11/02 03:58:37;;;;;;;0.35;0.20;;;22.20;41.30;;;;;;4958052;28;20393;-84
2022/11/02 04:01:09;;;;;;;0.40;0.10;;;22.00;41.50;;;;;;4995953;28;20499;-88
2022/11/02 04:03:42;;;;;;;0.60;0.20;;;22.10;41.70;;;;;;5014921;28;20732;-84
2022/11/02 04:06:09;;;;;;;1.00;0.15;;;21.60;41.40;;;;;;5016532;28;20388;-85
2022/11/02 04:08:45;;;;;;;0.22;0.20;;;22.00;42.40;;;;;;5003570;28;20375;-84
2022/11/02 04:16:48;;;;;;;1.50;0.30;;;22.70;42.80;;;;;;5009689;28;20479;-88
2022/11/02 04:19:28;;;;;;;0.40;0.20;;;22.80;43.10;;;;;;5013467;28;20402;-85
2022/11/02 04:25:18;;;;;;;0.50;0.20;;;22.50;42.20;;;;;;5010880;28;20402;-82
2022/11/02 04:27:48;;;;;;;0.60;0.20;;;22.20;43.10;;;;;;4984724;28;20452;-87
2022/11/02 04:30:17;;;;;;;0.30;0.10;;;22.70;44.70;;;;;;5002548;28;20391;-84
2022/11/02 04:35:32;;;;;;;0.65;0.20;;;23.40;44.00;;;;;;4994421;28;20438;-84
2022/11/02 04:40:45;;;;;;;0.20;0.20;;;22.90;43.80;;;;;;4981938;28;20479;-82
2022/11/02 04:43:12;;;;;;;0.43;0.20;;;22.60;41.30;;;;;;4992652;28;20462;-84
2022/11/02 04:45:39;;;;;;;0.15;0.10;;;22.60;42.40;;;;;;4998649;28;20390;-84
2022/11/02 04:48:08;;;;;;;0.25;0.10;;;22.30;43.80;;;;;;4991423;28;20394;-83
2022/11/02 04:50:36;;;;;;;0.35;0.10;;;21.00;44.00;;;;;;4988504;28;20751;-84
2022/11/02 04:53:06;;;;;;;0.20;0.10;;;20.30;45.90;;;;;;4998055;28;20455;-84
2022/11/02 04:55:34;;;;;;;0.23;0.20;;;20.70;47.10;;;;;;4991980;28;20439;-82
2022/11/02 04:58:01;;;;;;;0.20;0.20;;;21.20;47.10;;;;;;5005860;28;20436;-87
2022/11/02 05:00:36;;;;;;;0.20;0.20;;;21.50;46.30;;;;;;5015716;28;20779;-84
2022/11/02 05:03:03;;;;;;;0.82;0.20;;;21.00;45.70;;;;;;4999144;28;20451;-84
2022/11/02 05:05:30;;;;;;;0.40;0.10;;;21.00;46.80;;;;;;4994173;28;20891;-85
2022/11/02 05:07:57;;;;;;;1.77;0.30;;;21.40;46.40;;;;;;4996460;28;20416;-83
2022/11/02 05:10:24;;;;;;;1.85;0.45;;;21.60;46.40;;;;;;5006706;28;20385;-83
2022/11/02 05:12:57;;;;;;;0.40;0.30;;;21.00;46.20;;;;;;4994576;28;21166;-85
2022/11/02 05:15:24;;;;;;;0.50;0.20;;;20.80;48.00;;;;;;5006221;28;20394;-85
2022/11/02 05:17:51;;;;;;;0.52;0.40;;;21.20;44.50;;;;;;4997573;28;20963;-84
2022/11/02 05:20:18;;;;;;;0.40;0.25;;;20.80;45.00;;;;;;5004904;28;20865;-84
2022/11/02 05:22:45;;;;;;;1.40;0.20;;;20.40;45.30;;;;;;4999058;28;20400;-84
2022/11/02 05:25:13;;;;;;;0.60;0.60;;;20.90;45.50;;;;;;4995691;28;20876;-84
2022/11/02 05:27:40;;;;;;;1.00;0.70;;;20.70;45.30;;;;;;5003841;28;20732;-85
2022/11/02 05:30:07;;;;;;;1.67;1.58;;;21.30;44.90;;;;;;4999241;28;20401;-84
2022/11/02 05:32:34;;;;;;;1.33;0.80;;;21.20;44.10;;;;;;4995740;28;20907;-84
2022/11/02 05:35:01;;;;;;;3.22;2.47;;;20.90;44.20;;;;;;4995623;28;20458;-87
2022/11/02 05:37:28;;;;;;;1.80;1.58;;;20.90;45.70;;;;;;4999742;28;20400;-84
2022/11/02 05:39:57;;;;;;;1.13;1.00;;;21.30;44.10;;;;;;5005601;28;20396;-83
2022/11/02 05:42:24;;;;;;;1.90;0.75;;;21.50;42.80;;;;;;5001758;28;20399;-89
2022/11/02 05:44:51;;;;;;;2.15;1.55;;;20.60;43.80;;;;;;4997553;28;20407;-85
2022/11/02 05:47:18;;;;;;;1.15;0.30;;;20.50;44.90;;;;;;4998538;28;20380;-80
2022/11/02 05:49:45;;;;;;;0.73;0.30;;;20.10;45.00;;;;;;4998747;28;20545;-86
2022/11/02 05:52:12;;;;;;;2.80;0.30;;;20.00;45.60;;;;;;5001507;28;20373;-83
2022/11/02 05:54:39;;;;;;;1.00;0.20;;;20.10;45.70;;;;;;5015681;28;20437;-83
2022/11/02 05:57:06;;;;;;;0.75;0.30;;;20.00;45.60;;;;;;5019765;28;20383;-83
2022/11/02 05:59:53;;;;;;;1.15;0.38;;;20.50;45.70;;;;;;5018686;28;20458;-82
2022/11/02 06:02:20;;;;;;;1.00;0.30;;;20.50;45.90;;;;;;4995631;28;20689;-81
2022/11/02 06:04:47;;;;;;;0.55;0.30;;;20.90;46.10;;;;;;5010550;28;20493;-78
2022/11/02 06:07:38;;;;;;;0.40;0.30;;;19.80;46.30;;;;;;5013237;28;20403;-78
2022/11/02 06:10:06;;;;;;;0.35;0.30;;;19.40;47.60;;;;;;5017379;28;20412;-80
2022/11/02 06:12:33;;;;;;;1.55;0.30;;;20.60;47.10;;;;;;5013024;28;20419;-90
2022/11/02 06:15:00;;;;;;;0.90;0.30;;;21.00;46.10;;;;;;5011666;28;20373;-88
2022/11/02 06:17:27;;;;;;;0.90;0.20;;;20.60;44.90;;;;;;5029223;28;20486;-77
2022/11/02 06:19:54;;;;;;;0.50;0.30;;;19.90;46.40;;;;;;5022600;28;20383;-78
2022/11/02 06:22:21;;;;;;;0.77;0.25;;;19.00;47.10;;;;;;5014913;28;20402;-80
2022/11/02 06:24:48;;;;;;;1.60;0.38;;;19.60;47.00;;;;;;5012747;28;20384;-79
2022/11/02 06:27:15;;;;;;;0.53;0.30;;;19.80;46.80;;;;;;5015068;28;20414;-82
2022/11/02 06:29:42;;;;;;;0.93;0.37;;;19.50;48.10;;;;;;5008238;28;20447;-80
2022/11/02 06:32:09;;;;;;;1.43;0.40;;;19.50;47.10;;;;;;5010493;28;20415;-85
2022/11/02 06:34:38;;;;;;;0.50;0.28;;;19.90;47.30;;;;;;5006582;28;20943;-79
2022/11/02 06:37:05;;;;;;;0.60;0.30;;;19.70;47.20;;;;;;5011104;28;20406;-80
2022/11/02 06:39:32;;;;;;;0.52;0.30;;;19.00;46.30;;;;;;5012711;28;20424;-81
2022/11/02 06:42:01;;;;;;;0.80;0.32;;;18.70;46.80;;;;;;5000472;28;20419;-91
2022/11/02 06:44:28;;;;;;;0.40;0.30;;;19.10;46.50;;;;;;4995395;28;20399;-83
2022/11/02 06:46:54;;;;;;;0.88;0.40;;;19.50;46.20;;;;;;5008457;28;20455;-85
2022/11/02 06:49:22;;;;;;;0.75;0.35;;;19.60;46.60;;;;;;4991777;28;20406;-85
2022/11/02 06:51:52;;;;;;;0.50;0.40;;;19.80;46.50;;;;;;5000311;28;20405;-82
2022/11/02 06:54:19;;;;;;;0.70;0.30;;;19.90;46.30;;;;;;5008809;28;20384;-75
2022/11/02 06:56:46;;;;;;;1.30;0.35;;;19.50;47.00;;;;;;4996416;28;20400;-81
2022/11/02 06:59:13;;;;;;;1.23;0.30;;;19.40;47.70;;;;;;4996648;28;20428;-75
2022/11/02 07:01:41;;;;;;;0.50;0.20;;;19.40;48.70;;;;;;5007379;28;20415;-82
2022/11/02 07:04:10;;;;;;;0.47;0.30;;;19.30;48.80;;;;;;5003333;28;20409;-85
2022/11/02 07:06:37;;;;;;;1.37;0.33;;;18.90;49.50;;;;;;5010763;28;20467;-81
2022/11/02 07:09:04;;;;;;;0.80;0.20;;;18.70;50.40;;;;;;5019774;28;20395;-81
2022/11/02 07:11:32;;;;;;;0.37;0.20;;;18.60;50.40;;;;;;5013324;28;20384;-81
2022/11/02 07:13:59;;;;;;;0.47;0.30;;;18.60;50.90;;;;;;5019385;28;20385;-82
2022/11/02 07:16:26;;;;;;;0.40;0.30;;;18.50;51.30;;;;;;5022423;28;20462;-80
2022/11/02 07:18:53;;;;;;;0.75;0.40;;;18.50;51.80;;;;;;5006499;28;20398;-81
2022/11/02 07:21:20;;;;;;;0.90;0.20;;;18.40;51.10;;;;;;5003872;28;20416;-84
2022/11/02 07:23:47;;;;;;;1.20;0.32;;;18.00;52.20;;;;;;5015699;28;20378;-82
2022/11/02 07:26:14;;;;;;;0.70;0.32;;;17.50;52.70;;;;;;5010682;28;20378;-83
2022/11/02 07:28:41;;;;;;;1.20;0.40;;;17.10;54.10;;;;;;5008456;28;20394;-82
2022/11/02 07:31:08;;;;;;;0.75;0.50;;;17.00;54.20;;;;;;4996859;28;20393;-84
2022/11/02 07:33:36;;;;;;;0.65;0.50;;;16.70;54.60;;;;;;4994958;28;20468;-83
2022/11/02 07:36:04;;;;;;;1.45;0.50;;;16.60;54.70;;;;;;4997827;28;20789;-84
2022/11/02 07:38:31;;;;;;;1.35;0.50;;;16.50;54.20;;;;;;5001668;28;20424;-86
2022/11/02 07:40:58;;;;;;;2.25;0.40;;;16.50;54.80;;;;;;4995534;28;20435;-87
2022/11/02 07:43:25;;;;;;;2.03;0.50;;;16.60;54.60;;;;;;4996970;28;20389;-83
2022/11/02 07:45:52;;;;;;;0.70;0.40;;;16.60;55.30;;;;;;4994460;28;20400;-84
2022/11/02 07:48:20;;;;;;;1.20;0.60;;;16.80;54.50;;;;;;5003518;28;20556;-87
2022/11/02 07:50:47;;;;;;;0.75;0.47;;;16.80;53.30;;;;;;4993069;28;20893;-84
2022/11/02 07:53:14;;;;;;;1.58;0.50;;;16.80;52.40;;;;;;4998130;28;20383;-84
2022/11/02 07:55:41;;;;;;;0.90;0.45;;;16.70;51.30;;;;;;4993917;28;20404;-82
2022/11/02 07:58:15;;;;;;;1.10;0.40;;;16.50;51.30;;;;;;5003943;28;20412;-91
2022/11/02 08:00:42;;;;;;;0.50;0.28;;;16.50;51.80;;;;;;5000268;28;20501;-85
2022/11/02 08:03:10;;;;;;;3.60;2.30;;;16.40;52.60;;;;;;5011961;28;20395;-84
2022/11/02 08:05:40;;;;;;;1.60;0.88;;;16.30;53.30;;;;;;5012452;28;20862;-85
2022/11/02 08:08:18;;;;;;;3.22;2.92;;;16.30;53.50;;;;;;5012495;28;20379;-84
2022/11/02 08:10:48;;;;;;;5.50;4.83;;;16.10;54.30;;;;;;4987561;28;20386;-86
2022/11/02 08:13:24;;;;;;;1.73;1.55;;;15.90;54.80;;;;;;4998823;28;20381;-84
2022/11/02 08:15:56;;;;;;;1.48;0.90;;;15.60;55.40;;;;;;4971395;28;20398;-87
2022/11/02 08:18:28;;;;;;;1.80;1.13;;;15.40;56.00;;;;;;4987761;28;20488;-84
2022/11/02 08:21:01;;;;;;;0.70;0.40;;;15.20;55.80;;;;;;5010366;28;20504;-92
2022/11/02 08:23:28;;;;;;;1.00;0.43;;;15.10;56.40;;;;;;5007477;28;20387;-84
2022/11/02 08:25:59;;;;;;;1.48;0.50;;;15.00;56.70;;;;;;5015455;28;20371;-87
2022/11/02 08:28:34;;;;;;;0.70;0.40;;;14.90;56.70;;;;;;5015669;28;21037;-85
2022/11/02 08:31:01;;;;;;;1.90;0.50;;;14.80;57.30;;;;;;5014187;28;20775;-85
2022/11/02 08:33:29;;;;;;;1.80;0.50;;;14.80;56.70;;;;;;5010098;28;20396;-83
2022/11/02 08:36:05;;;;;;;0.98;0.30;;;14.70;57.30;;;;;;5013370;28;20393;-90
2022/11/02 08:38:32;;;;;;;0.90;0.40;;;14.60;57.50;;;;;;5006545;28;20501;-88
2022/11/02 08:41:00;;;;;;;1.27;0.30;;;14.60;58.10;;;;;;5018015;28;20439;-88
2022/11/02 08:43:27;;;;;;;1.83;0.40;;;14.60;58.00;;;;;;5004684;28;20853;-85
2022/11/02 08:45:58;;;;;;;1.40;0.40;;;14.50;58.20;;;;;;4998939;28;20391;-84
2022/11/02 08:48:29;;;;;;;0.93;0.50;;;14.50;58.30;;;;;;5008004;28;20379;-85
2022/11/02 08:50:56;;;;;;;0.57;0.40;;;14.50;58.60;;;;;;5010194;28;20389;-83
2022/11/02 08:53:23;;;;;;;1.00;0.40;;;14.40;58.10;;;;;;5010818;28;20383;-83
2022/11/02 08:55:50;;;;;;;1.13;0.43;;;12.90;57.40;;;;;;5035655;28;20476;-83
2022/11/02 08:58:17;;;;;;;2.67;0.50;;;14.40;58.70;;;;;;5018088;28;20453;-83
2022/11/02 09:00:44;;;;;;;0.60;0.43;;;14.30;58.90;;;;;;4999843;28;20398;-80
2022/11/02 09:03:13;;;;;;;0.93;0.50;;;14.30;58.60;;;;;;5006617;28;20405;-84
2022/11/02 09:05:43;;;;;;;1.30;0.50;;;14.20;58.90;;;;;;5000892;28;20392;-85
2022/11/02 09:08:15;;;;;;;2.72;0.52;;;14.20;59.20;;;;;;5018233;28;20383;-84
2022/11/02 09:10:43;;;;;;;1.60;0.50;;;14.10;59.30;;;;;;5011480;28;20387;-84
2022/11/02 09:13:13;;;;;;;0.90;0.60;;;14.10;59.70;;;;;;5004548;28;20502;-85
2022/11/02 09:15:40;;;;;;;1.65;0.60;;;14.10;59.80;;;;;;5007144;28;20394;-83
2022/11/02 09:18:08;;;;;;;1.60;0.80;;;14.00;60.10;;;;;;5003288;28;20925;-83
2022/11/02 09:20:36;;;;;;;0.93;0.80;;;14.00;60.20;;;;;;5014726;28;20419;-82
2022/11/02 09:23:03;;;;;;;2.25;0.80;;;13.90;60.10;;;;;;5008802;28;20396;-84
2022/11/02 09:25:30;;;;;;;0.63;0.40;;;13.90;60.30;;;;;;5014173;28;20913;-84
2022/11/02 09:27:57;;;;;;;2.10;0.50;;;13.90;60.90;;;;;;5006649;28;20403;-84
2022/11/02 09:30:27;;;;;;;1.52;0.57;;;13.80;60.90;;;;;;4995422;28;20793;-85
2022/11/02 09:33:02;;;;;;;1.02;0.50;;;13.70;61.30;;;;;;4998136;28;20393;-84
2022/11/02 09:35:32;;;;;;;0.85;0.50;;;13.60;61.60;;;;;;4995201;28;20492;-84
2022/11/02 09:38:00;;;;;;;1.33;0.60;;;13.60;61.70;;;;;;5002694;28;20419;-85
2022/11/02 09:40:58;;;;;;;0.90;0.55;;;13.60;61.90;;;;;;5006747;28;20396;-83
2022/11/02 09:43:39;;;;;;;3.67;0.70;;;13.60;62.00;;;;;;4962096;28;20451;-84
2022/11/02 09:46:27;;;;;;;2.58;0.70;;;13.50;62.20;;;;;;4965736;28;20453;-83
2022/11/02 09:49:02;;;;;;;1.50;0.70;;;13.50;62.50;;;;;;4958859;28;20409;-84
2022/11/02 09:51:38;;;;;;;1.20;0.70;;;13.40;62.70;;;;;;4954504;28;20896;-83
2022/11/02 09:54:30;;;;;;;1.85;0.63;;;13.40;63.00;;;;;;4960313;28;20394;-86
2022/11/02 09:57:10;;;;;;;1.77;0.80;;;13.40;63.40;;;;;;4962367;28;20404;-85
2022/11/02 09:59:37;;;;;;;2.08;0.80;;;13.30;63.70;;;;;;4960955;28;20405;-86
2022/11/02 10:02:22;;;;;;;1.27;0.73;;;13.20;64.10;;;;;;4965306;28;20428;-86
2022/11/02 10:05:07;;;;;;;3.17;1.00;;;13.30;64.30;;;;;;4969123;28;20411;-85
2022/11/02 10:07:36;;;;;;;2.72;1.10;;;13.20;64.80;;;;;;4963742;28;20397;-86
2022/11/02 10:10:12;;;;;;;1.15;0.70;;;13.10;65.40;;;;;;4957867;28;20404;-85
2022/11/02 10:12:57;;;;;;;2.50;0.60;;;13.10;65.60;;;;;;4966680;28;20432;-86
2022/11/02 10:15:29;;;;;;;1.55;0.60;;;13.10;65.10;;;;;;4958248;28;20407;-84
2022/11/02 10:17:59;;;;;;;1.50;0.50;;;13.00;66.00;;;;;;4956461;28;20392;-83
2022/11/02 10:20:43;;;;;;;1.92;0.70;;;13.00;66.20;;;;;;4985294;28;20968;-85
2022/11/02 10:23:37;;;;;;;1.60;0.80;;;13.00;66.60;;;;;;5029143;28;20398;-86
2022/11/02 10:26:04;;;;;;;0.77;0.63;;;12.90;66.60;;;;;;5005560;28;20391;-86
2022/11/02 10:28:38;;;;;;;1.30;0.80;;;11.80;66.10;;;;;;5000997;28;20397;-83
2022/11/02 10:31:28;;;;;;;2.97;0.82;;;12.90;66.70;;;;;;5000779;28;20464;-82
2022/11/02 10:33:58;;;;;;;2.53;0.90;;;12.90;66.60;;;;;;4986962;28;20401;-84
2022/11/02 10:36:43;;;;;;;1.80;1.10;;;12.90;67.50;;;;;;5010951;28;20724;-85
2022/11/02 10:39:19;;;;;;;1.50;0.85;;;12.90;66.50;;;;;;5006942;28;20409;-85
2022/11/02 10:42:06;;;;;;;1.20;0.80;;;13.00;66.60;;;;;;4997144;28;20429;-86
2022/11/02 10:44:54;;;;;;;2.50;0.95;;;12.90;66.40;;;;;;4983321;28;20427;-85
2022/11/02 10:47:28;;;;;;;3.33;1.63;;;12.90;66.50;;;;;;4979334;28;20394;-85
2022/11/02 10:50:13;;;;;;;1.95;0.90;;;12.80;66.90;;;;;;4981784;28;20417;-86
2022/11/02 10:52:44;;;;;;;1.55;0.82;;;12.80;67.20;;;;;;4984335;28;20493;-83
2022/11/02 10:55:28;;;;;;;1.60;0.88;;;12.60;68.70;;;;;;4989729;28;20455;-84
2022/11/02 10:57:59;;;;;;;2.43;0.83;;;12.60;67.80;;;;;;4981583;28;20400;-85
2022/11/02 11:00:34;;;;;;;2.42;0.93;;;12.60;68.50;;;;;;4985412;28;20410;-85
2022/11/02 11:03:12;;;;;;;1.38;0.70;;;12.50;69.00;;;;;;4986177;28;20414;-85
2022/11/02 11:05:58;;;;;;;1.83;0.73;;;12.40;68.70;;;;;;4988586;28;20377;-83
2022/11/02 11:08:37;;;;;;;2.45;1.00;;;12.50;68.60;;;;;;4981319;28;20394;-85
2022/11/02 11:11:18;;;;;;;1.33;0.93;;;12.50;68.40;;;;;;4978143;28;20400;-85
2022/11/02 11:14:01;;;;;;;2.13;0.90;;;12.50;69.00;;;;;;4981870;28;21242;-86
2022/11/02 11:16:40;;;;;;;2.20;1.00;;;12.50;69.10;;;;;;4980845;28;20453;-85
2022/11/02 11:19:36;;;;;;;1.58;0.93;;;12.40;69.50;;;;;;4970492;28;20884;-84
2022/11/02 11:22:22;;;;;;;2.20;1.20;;;12.30;70.00;;;;;;4991313;28;21288;-85
2022/11/02 11:24:49;;;;;;;4.18;0.85;;;12.30;70.10;;;;;;5000550;28;20468;-84
2022/11/02 11:27:23;;;;;;;1.27;0.70;;;12.40;69.50;;;;;;5012266;28;20439;-86
2022/11/02 11:29:58;;;;;;;1.88;0.90;;;12.50;69.10;;;;;;4997106;28;20385;-83
2022/11/02 11:32:27;;;;;;;1.85;0.85;;;12.50;69.50;;;;;;4996208;28;20748;-81
2022/11/02 11:35:16;;;;;;;2.63;0.90;;;12.60;68.90;;;;;;5005401;28;20391;-85
2022/11/02 11:38:09;;;;;;;2.83;0.90;;;12.50;69.00;;;;;;4997286;28;20443;-83
2022/11/02 11:40:46;;;;;;;2.33;0.88;;;12.40;69.70;;;;;;5011126;28;20408;-83
2022/11/02 11:43:19;;;;;;;1.73;0.93;;;12.30;70.60;;;;;;5000625;28;20387;-83
2022/11/02 11:46:05;;;;;;;1.90;1.00;;;12.20;71.20;;;;;;4996005;28;20449;-84
2022/11/02 11:48:35;;;;;;;2.00;1.20;;;12.10;71.60;;;;;;4992529;28;20397;-86
2022/11/02 11:51:04;;;;;;;1.90;1.00;;;12.00;71.70;;;;;;4995116;28;20389;-86
2022/11/02 11:53:31;;;;;;;2.03;1.10;;;11.90;72.60;;;;;;5012247;28;20390;-86
2022/11/02 11:56:00;;;;;;;1.80;1.10;;;11.80;73.00;;;;;;5006093;28;20391;-83
2022/11/02 11:58:29;;;;;;;3.70;1.10;;;11.70;73.60;;;;;;4999970;28;20412;-86
2022/11/02 12:01:07;;;;;;;1.92;1.10;;;11.70;74.00;;;;;;5010536;28;20403;-83
2022/11/02 12:04:08;;;;;;;2.67;0.90;;;11.70;74.80;;;;;;5011977;28;20390;-85
2022/11/02 12:06:52;;;;;;;1.92;0.93;;;11.80;74.90;;;;;;4968386;28;20399;-85
2022/11/02 12:10:07;;;;;;;1.75;0.90;;;11.90;74.60;;;;;;4976279;28;20391;-87
2022/11/02 12:12:53;;;;;;;2.97;1.00;;;11.90;74.50;;;;;;4920221;29;20394;-83
2022/11/02 12:15:41;;;;;;;1.92;1.00;;;11.90;74.20;;;;;;4918916;29;20935;-85
2022/11/02 12:18:26;;;;;;;2.17;1.10;;;11.90;74.70;;;;;;4904692;29;20435;-81
2022/11/02 12:21:22;;;;;;;2.87;1.00;;;11.80;75.30;;;;;;4919701;29;20419;-85
2022/11/02 12:23:55;;;;;;;1.30;0.88;;;11.70;75.70;;;;;;4919499;29;20411;-81
2022/11/02 12:26:46;;;;;;;2.33;1.10;;;11.70;76.10;;;;;;4913035;29;20474;-82
2022/11/02 12:29:50;;;;;;;1.65;0.90;;;11.70;76.70;;;;;;4914228;29;20533;-84
2022/11/02 12:32:44;;;;;;;2.35;0.80;;;11.60;77.60;;;;;;4915557;29;20395;-83
2022/11/02 12:35:16;;;;;;;2.13;0.90;;;11.50;77.80;;;;;;4915414;29;20399;-84
2022/11/02 12:37:52;;;;;;;2.20;1.00;;;11.60;77.90;;;;;;4914765;29;20955;-85
2022/11/02 12:40:37;;;;;;;2.38;1.10;;;11.60;78.30;;;;;;4914830;29;20403;-86
2022/11/02 12:43:29;;;;;;;2.33;1.10;;;11.50;78.50;;;;;;4896931;29;20788;-83
2022/11/02 12:46:17;;;;;;;2.03;1.10;;;11.40;79.20;;;;;;4912632;29;21004;-83
2022/11/02 12:49:04;;;;;;;2.65;1.00;;;11.20;80.80;;;;;;4920630;28;20407;-82
2022/11/02 12:51:48;;;;;;;2.13;0.82;;;11.10;82.50;;;;;;4958528;28;20395;-83
2022/11/02 12:54:26;;;;;;;2.10;1.00;;;11.00;83.80;;;;;;4992670;28;20769;-88
2022/11/02 12:56:54;;;;;;;2.03;0.90;;;10.90;84.70;;;;;;4994759;28;20469;-84
2022/11/02 12:59:31;;;;;;;2.05;1.08;;;10.90;85.80;;;;;;4997377;28;20384;-83
2022/11/02 13:02:22;;;;;;;2.60;1.10;;;10.90;87.80;;;;;;4990787;28;20432;-87
2022/11/02 13:04:53;;;;;;;2.67;0.90;;;11.00;87.50;;;;;;5004003;28;20386;-85
2022/11/02 13:07:38;;;;;;;3.25;0.90;;;10.90;87.60;;;;;;4991162;28;20448;-86
2022/11/02 13:10:17;;;;;;;3.13;1.10;;;10.90;89.10;;;;;;5005515;28;20417;-84
2022/11/02 13:12:51;;;;;;;3.00;1.13;;;10.80;89.80;;;;;;5001747;28;20404;-82
2022/11/02 13:15:23;;;;;;;4.30;1.17;;;10.70;90.40;;;;;;4994079;28;20425;-86
2022/11/02 13:17:59;;;;;;;2.50;1.00;;;10.70;90.70;;;;;;5010202;28;20422;-86
2022/11/02 13:20:44;;;;;;;2.63;1.02;;;10.60;91.00;;;;;;4998236;28;20400;-87
2022/11/02 13:23:34;;;;;;;2.97;1.13;;;10.60;91.70;;;;;;4998377;28;20397;-82
2022/11/02 13:26:06;;;;;;;1.83;1.10;;;10.60;92.10;;;;;;4994993;28;20924;-85
2022/11/02 13:28:45;;;;;;;3.33;1.15;;;10.60;92.50;;;;;;5009117;28;20425;-85
2022/11/02 13:31:43;;;;;;;3.33;1.10;;;10.50;92.80;;;;;;4997073;28;20754;-87
2022/11/02 13:34:15;;;;;;;2.00;1.05;;;10.50;93.30;;;;;;4999161;28;20424;-80
2022/11/02 13:36:43;;;;;;;2.65;1.20;;;10.40;93.80;;;;;;5009065;28;20401;-86
2022/11/02 13:39:31;;;;;;;2.30;1.00;;;10.40;94.40;;;;;;4995739;28;20432;-87